sensor_id;sensor_type;location;lat;lon;timestamp;P1;durP1;ratioP1;P2;durP2;ratioP2
31758;SDS011;36334;51.366;0.020;2022-09-03T00:00:27;23.00;;;19.30;;
31758;SDS011;36334;51.366;0.020;2022-09-03T00:03:19;23.63;;;19.90;;
31758;SDS011;36334;51.366;0.020;2022-09-03T00:06:21;22.80;;;20.40;;
31758;SDS011;36334;51.366;0.020;2022-09-03T00:09:14;21.23;;;18.88;;
31758;SDS011;36334;51.366;0.020;2022-09-03T00:12:12;23.83;;;20.30;;
31758;SDS011;36334;51.366;0.020;2022-09-03T00:15:04;24.70;;;20.57;;
31758;SDS011;36334;51.366;0.020;2022-09-03T00:17:57;26.70;;;22.20;;
31758;SDS011;36334;51.366;0.020;2022-09-03T00:21:00;24.05;;;21.50;;
31758;SDS011;36334;51.366;0.020;2022-09-03T00:23:53;23.55;;;21.15;;
31758;SDS011;36334;51.366;0.020;2022-09-03T00:26:45;26.40;;;21.80;;
31758;SDS011;36334;51.366;0.020;2022-09-03T00:29:45;23.85;;;21.33;;
31758;SDS011;36334;51.366;0.020;2022-09-03T00:32:49;25.13;;;22.58;;
31758;SDS011;36334;51.366;0.020;2022-09-03T00:36:01;28.35;;;23.50;;
31758;SDS011;36334;51.366;0.020;2022-09-03T00:38:48;25.77;;;23.00;;
31758;SDS011;36334;51.366;0.020;2022-09-03T00:41:36;28.80;;;22.90;;
31758;SDS011;36334;51.366;0.020;2022-09-03T00:44:50;23.67;;;21.17;;
31758;SDS011;36334;51.366;0.020;2022-09-03T00:51:06;28.48;;;22.85;;
31758;SDS011;36334;51.366;0.020;2022-09-03T00:54:10;27.50;;;22.73;;
31758;SDS011;36334;51.366;0.020;2022-09-03T01:00:19;26.75;;;22.55;;
31758;SDS011;36334;51.366;0.020;2022-09-03T01:09:02;26.33;;;23.60;;
31758;SDS011;36334;51.366;0.020;2022-09-03T01:11:58;27.05;;;24.15;;
31758;SDS011;36334;51.366;0.020;2022-09-03T01:15:12;26.30;;;22.80;;
31758;SDS011;36334;51.366;0.020;2022-09-03T01:18:13;26.30;;;22.90;;
31758;SDS011;36334;51.366;0.020;2022-09-03T01:21:08;25.00;;;22.25;;
31758;SDS011;36334;51.366;0.020;2022-09-03T01:24:03;28.38;;;24.35;;
31758;SDS011;36334;51.366;0.020;2022-09-03T01:30:06;26.83;;;23.95;;
31758;SDS011;36334;51.366;0.020;2022-09-03T01:39:01;24.73;;;22.10;;
31758;SDS011;36334;51.366;0.020;2022-09-03T01:50:52;28.48;;;23.92;;
31758;SDS011;36334;51.366;0.020;2022-09-03T02:00:21;27.30;;;24.48;;
31758;SDS011;36334;51.366;0.020;2022-09-03T02:03:08;28.40;;;25.42;;
31758;SDS011;36334;51.366;0.020;2022-09-03T02:05:56;28.02;;;24.92;;
31758;SDS011;36334;51.366;0.020;2022-09-03T02:08:42;26.02;;;23.25;;
31758;SDS011;36334;51.366;0.020;2022-09-03T02:11:29;26.73;;;23.25;;
31758;SDS011;36334;51.366;0.020;2022-09-03T02:14:15;29.83;;;24.92;;
31758;SDS011;36334;51.366;0.020;2022-09-03T02:17:01;29.77;;;26.60;;
31758;SDS011;36334;51.366;0.020;2022-09-03T02:19:49;29.13;;;25.25;;
31758;SDS011;36334;51.366;0.020;2022-09-03T02:22:36;31.63;;;27.38;;
31758;SDS011;36334;51.366;0.020;2022-09-03T02:25:28;32.20;;;26.90;;
31758;SDS011;36334;51.366;0.020;2022-09-03T02:28:18;29.85;;;26.58;;
31758;SDS011;36334;51.366;0.020;2022-09-03T02:31:04;31.17;;;27.77;;
31758;SDS011;36334;51.366;0.020;2022-09-03T02:33:50;32.60;;;29.08;;
31758;SDS011;36334;51.366;0.020;2022-09-03T02:36:37;34.45;;;28.67;;
31758;SDS011;36334;51.366;0.020;2022-09-03T02:39:27;30.42;;;27.13;;
31758;SDS011;36334;51.366;0.020;2022-09-03T02:54:05;32.50;;;28.20;;
31758;SDS011;36334;51.366;0.020;2022-09-03T03:21:57;47.92;;;33.92;;
31758;SDS011;36334;51.366;0.020;2022-09-03T04:27:13;42.78;;;36.25;;
31758;SDS011;36334;51.366;0.020;2022-09-03T05:05:03;52.25;;;43.00;;
31758;SDS011;36334;51.366;0.020;2022-09-03T05:08:03;52.35;;;42.45;;
31758;SDS011;36334;51.366;0.020;2022-09-03T05:11:04;53.80;;;43.13;;
31758;SDS011;36334;51.366;0.020;2022-09-03T05:14:08;50.92;;;43.10;;
31758;SDS011;36334;51.366;0.020;2022-09-03T05:17:11;54.10;;;42.35;;
31758;SDS011;36334;51.366;0.020;2022-09-03T05:19:57;52.47;;;43.13;;
31758;SDS011;36334;51.366;0.020;2022-09-03T05:22:44;50.78;;;40.60;;
31758;SDS011;36334;51.366;0.020;2022-09-03T05:25:30;52.30;;;40.72;;
31758;SDS011;36334;51.366;0.020;2022-09-03T05:28:17;51.38;;;42.95;;
31758;SDS011;36334;51.366;0.020;2022-09-03T05:31:05;53.60;;;43.90;;
31758;SDS011;36334;51.366;0.020;2022-09-03T05:34:03;54.60;;;42.00;;
31758;SDS011;36334;51.366;0.020;2022-09-03T05:37:03;52.05;;;44.55;;
31758;SDS011;36334;51.366;0.020;2022-09-03T05:40:00;50.13;;;43.35;;
31758;SDS011;36334;51.366;0.020;2022-09-03T05:42:56;50.80;;;41.95;;
31758;SDS011;36334;51.366;0.020;2022-09-03T05:45:43;51.15;;;41.65;;
31758;SDS011;36334;51.366;0.020;2022-09-03T05:48:46;51.00;;;40.40;;
31758;SDS011;36334;51.366;0.020;2022-09-03T05:51:33;56.50;;;42.85;;
31758;SDS011;36334;51.366;0.020;2022-09-03T05:54:27;50.30;;;40.67;;
31758;SDS011;36334;51.366;0.020;2022-09-03T05:57:20;48.20;;;40.95;;
31758;SDS011;36334;51.366;0.020;2022-09-03T06:00:07;50.25;;;40.72;;
31758;SDS011;36334;51.366;0.020;2022-09-03T06:02:57;48.97;;;40.35;;
31758;SDS011;36334;51.366;0.020;2022-09-03T06:05:50;47.70;;;38.55;;
31758;SDS011;36334;51.366;0.020;2022-09-03T06:08:53;49.85;;;38.97;;
31758;SDS011;36334;51.366;0.020;2022-09-03T06:11:46;50.35;;;39.80;;
31758;SDS011;36334;51.366;0.020;2022-09-03T06:14:37;54.75;;;42.60;;
31758;SDS011;36334;51.366;0.020;2022-09-03T06:17:24;49.33;;;42.50;;
31758;SDS011;36334;51.366;0.020;2022-09-03T06:20:11;49.70;;;41.88;;
31758;SDS011;36334;51.366;0.020;2022-09-03T06:22:57;51.90;;;40.88;;
31758;SDS011;36334;51.366;0.020;2022-09-03T06:25:44;46.88;;;39.63;;
31758;SDS011;36334;51.366;0.020;2022-09-03T06:28:30;50.20;;;40.75;;
31758;SDS011;36334;51.366;0.020;2022-09-03T06:31:20;53.03;;;43.58;;
31758;SDS011;36334;51.366;0.020;2022-09-03T06:34:07;53.80;;;42.25;;
31758;SDS011;36334;51.366;0.020;2022-09-03T06:36:54;51.72;;;41.95;;
31758;SDS011;36334;51.366;0.020;2022-09-03T06:39:40;59.00;;;46.50;;
31758;SDS011;36334;51.366;0.020;2022-09-03T06:42:27;50.65;;;41.90;;
31758;SDS011;36334;51.366;0.020;2022-09-03T06:45:14;54.03;;;43.10;;
31758;SDS011;36334;51.366;0.020;2022-09-03T06:48:02;53.83;;;43.80;;
31758;SDS011;36334;51.366;0.020;2022-09-03T06:50:52;53.47;;;42.28;;
31758;SDS011;36334;51.366;0.020;2022-09-03T06:53:50;47.95;;;41.25;;
31758;SDS011;36334;51.366;0.020;2022-09-03T06:56:39;49.75;;;40.67;;
31758;SDS011;36334;51.366;0.020;2022-09-03T06:59:29;49.13;;;40.67;;
31758;SDS011;36334;51.366;0.020;2022-09-03T07:02:15;50.55;;;41.33;;
31758;SDS011;36334;51.366;0.020;2022-09-03T07:05:03;52.28;;;41.67;;
31758;SDS011;36334;51.366;0.020;2022-09-03T07:07:49;49.00;;;38.50;;
31758;SDS011;36334;51.366;0.020;2022-09-03T07:10:37;46.92;;;37.00;;
31758;SDS011;36334;51.366;0.020;2022-09-03T07:13:23;43.90;;;36.40;;
31758;SDS011;36334;51.366;0.020;2022-09-03T07:16:11;44.53;;;36.60;;
31758;SDS011;36334;51.366;0.020;2022-09-03T07:18:58;41.13;;;35.42;;
31758;SDS011;36334;51.366;0.020;2022-09-03T07:21:45;40.10;;;32.75;;
31758;SDS011;36334;51.366;0.020;2022-09-03T07:24:38;36.30;;;30.83;;
31758;SDS011;36334;51.366;0.020;2022-09-03T07:27:24;31.70;;;27.90;;
31758;SDS011;36334;51.366;0.020;2022-09-03T07:30:11;32.63;;;28.48;;
31758;SDS011;36334;51.366;0.020;2022-09-03T07:32:57;37.17;;;30.08;;
31758;SDS011;36334;51.366;0.020;2022-09-03T07:35:46;26.45;;;21.00;;
31758;SDS011;36334;51.366;0.020;2022-09-03T07:38:33;21.80;;;19.60;;
31758;SDS011;36334;51.366;0.020;2022-09-03T07:41:20;22.92;;;19.77;;
31758;SDS011;36334;51.366;0.020;2022-09-03T07:44:14;24.05;;;19.90;;
31758;SDS011;36334;51.366;0.020;2022-09-03T07:47:04;21.63;;;18.83;;
31758;SDS011;36334;51.366;0.020;2022-09-03T07:49:52;21.23;;;18.95;;
31758;SDS011;36334;51.366;0.020;2022-09-03T07:52:43;22.05;;;19.35;;
31758;SDS011;36334;51.366;0.020;2022-09-03T07:55:29;21.63;;;19.40;;
31758;SDS011;36334;51.366;0.020;2022-09-03T07:58:15;23.10;;;18.75;;
31758;SDS011;36334;51.366;0.020;2022-09-03T08:01:03;23.35;;;20.85;;
31758;SDS011;36334;51.366;0.020;2022-09-03T08:03:57;23.23;;;20.58;;
31758;SDS011;36334;51.366;0.020;2022-09-03T08:06:44;24.08;;;21.08;;
31758;SDS011;36334;51.366;0.020;2022-09-03T08:09:31;25.33;;;21.00;;
31758;SDS011;36334;51.366;0.020;2022-09-03T08:12:17;24.65;;;21.45;;
31758;SDS011;36334;51.366;0.020;2022-09-03T08:15:04;23.92;;;20.05;;
31758;SDS011;36334;51.366;0.020;2022-09-03T08:17:50;22.92;;;19.40;;
31758;SDS011;36334;51.366;0.020;2022-09-03T08:20:36;22.63;;;18.85;;
31758;SDS011;36334;51.366;0.020;2022-09-03T08:23:24;24.13;;;19.08;;
31758;SDS011;36334;51.366;0.020;2022-09-03T08:26:18;21.77;;;18.98;;
31758;SDS011;36334;51.366;0.020;2022-09-03T08:29:07;24.25;;;19.80;;
31758;SDS011;36334;51.366;0.020;2022-09-03T08:31:55;20.05;;;17.95;;
31758;SDS011;36334;51.366;0.020;2022-09-03T08:34:44;20.10;;;18.00;;
31758;SDS011;36334;51.366;0.020;2022-09-03T08:37:31;19.02;;;16.75;;
31758;SDS011;36334;51.366;0.020;2022-09-03T08:40:17;18.55;;;16.55;;
31758;SDS011;36334;51.366;0.020;2022-09-03T08:43:14;19.65;;;17.60;;
31758;SDS011;36334;51.366;0.020;2022-09-03T08:46:04;21.88;;;18.58;;
31758;SDS011;36334;51.366;0.020;2022-09-03T08:48:55;17.35;;;14.88;;
31758;SDS011;36334;51.366;0.020;2022-09-03T08:51:43;16.50;;;14.27;;
31758;SDS011;36334;51.366;0.020;2022-09-03T08:54:32;16.27;;;14.15;;
31758;SDS011;36334;51.366;0.020;2022-09-03T08:57:20;16.50;;;14.82;;
31758;SDS011;36334;51.366;0.020;2022-09-03T09:00:07;19.10;;;15.43;;
31758;SDS011;36334;51.366;0.020;2022-09-03T09:06:13;15.05;;;13.55;;
31758;SDS011;36334;51.366;0.020;2022-09-03T09:24:21;13.52;;;11.30;;
31758;SDS011;36334;51.366;0.020;2022-09-03T09:27:13;17.10;;;13.60;;
31758;SDS011;36334;51.366;0.020;2022-09-03T09:30:04;14.25;;;12.45;;
31758;SDS011;36334;51.366;0.020;2022-09-03T09:32:50;17.00;;;11.15;;
31758;SDS011;36334;51.366;0.020;2022-09-03T09:35:36;14.23;;;11.45;;
31758;SDS011;36334;51.366;0.020;2022-09-03T09:38:31;14.63;;;10.80;;
31758;SDS011;36334;51.366;0.020;2022-09-03T09:44:17;12.30;;;10.90;;
31758;SDS011;36334;51.366;0.020;2022-09-03T09:47:07;12.23;;;9.70;;
31758;SDS011;36334;51.366;0.020;2022-09-03T09:50:17;13.68;;;10.43;;
31758;SDS011;36334;51.366;0.020;2022-09-03T09:53:11;10.63;;;8.68;;
31758;SDS011;36334;51.366;0.020;2022-09-03T09:56:01;11.13;;;9.65;;
31758;SDS011;36334;51.366;0.020;2022-09-03T09:58:47;10.93;;;8.10;;
31758;SDS011;36334;51.366;0.020;2022-09-03T10:01:37;8.70;;;7.80;;
31758;SDS011;36334;51.366;0.020;2022-09-03T10:04:29;8.70;;;6.80;;
31758;SDS011;36334;51.366;0.020;2022-09-03T10:07:28;10.25;;;8.77;;
31758;SDS011;36334;51.366;0.020;2022-09-03T10:10:16;12.23;;;9.55;;
31758;SDS011;36334;51.366;0.020;2022-09-03T10:13:08;10.68;;;9.57;;
31758;SDS011;36334;51.366;0.020;2022-09-03T10:16:00;11.43;;;10.25;;
31758;SDS011;36334;51.366;0.020;2022-09-03T10:19:34;10.35;;;9.35;;
31758;SDS011;36334;51.366;0.020;2022-09-03T10:22:21;11.13;;;9.77;;
31758;SDS011;36334;51.366;0.020;2022-09-03T10:25:13;13.43;;;11.73;;
31758;SDS011;36334;51.366;0.020;2022-09-03T10:28:01;11.13;;;9.38;;
31758;SDS011;36334;51.366;0.020;2022-09-03T10:46:32;10.20;;;8.52;;
31758;SDS011;36334;51.366;0.020;2022-09-03T10:52:56;11.98;;;9.27;;
31758;SDS011;36334;51.366;0.020;2022-09-03T10:56:05;7.45;;;4.72;;
31758;SDS011;36334;51.366;0.020;2022-09-03T11:07:36;6.72;;;5.80;;
31758;SDS011;36334;51.366;0.020;2022-09-03T11:16:53;5.05;;;4.50;;
31758;SDS011;36334;51.366;0.020;2022-09-03T11:19:47;6.90;;;5.20;;
31758;SDS011;36334;51.366;0.020;2022-09-03T11:22:38;6.30;;;4.35;;
31758;SDS011;36334;51.366;0.020;2022-09-03T11:25:30;4.80;;;4.30;;
31758;SDS011;36334;51.366;0.020;2022-09-03T11:37:24;5.47;;;4.75;;
31758;SDS011;36334;51.366;0.020;2022-09-03T11:40:15;5.40;;;4.75;;
31758;SDS011;36334;51.366;0.020;2022-09-03T11:49:10;5.43;;;4.82;;
31758;SDS011;36334;51.366;0.020;2022-09-03T11:52:02;5.38;;;4.80;;
31758;SDS011;36334;51.366;0.020;2022-09-03T11:54:50;5.80;;;4.70;;
31758;SDS011;36334;51.366;0.020;2022-09-03T11:57:41;7.13;;;4.40;;
31758;SDS011;36334;51.366;0.020;2022-09-03T12:03:16;6.18;;;4.65;;
31758;SDS011;36334;51.366;0.020;2022-09-03T12:13:02;5.03;;;4.53;;
31758;SDS011;36334;51.366;0.020;2022-09-03T12:19:03;4.88;;;4.40;;
31758;SDS011;36334;51.366;0.020;2022-09-03T12:22:00;5.43;;;4.35;;
31758;SDS011;36334;51.366;0.020;2022-09-03T12:24:48;5.00;;;4.28;;
31758;SDS011;36334;51.366;0.020;2022-09-03T12:27:35;5.05;;;4.30;;
31758;SDS011;36334;51.366;0.020;2022-09-03T12:30:22;5.65;;;4.50;;
31758;SDS011;36334;51.366;0.020;2022-09-03T12:33:10;5.43;;;4.53;;
31758;SDS011;36334;51.366;0.020;2022-09-03T12:36:01;4.43;;;4.00;;
31758;SDS011;36334;51.366;0.020;2022-09-03T12:38:48;4.78;;;3.85;;
31758;SDS011;36334;51.366;0.020;2022-09-03T12:42:05;5.57;;;3.95;;
31758;SDS011;36334;51.366;0.020;2022-09-03T12:44:54;7.05;;;4.90;;
31758;SDS011;36334;51.366;0.020;2022-09-03T12:47:41;5.75;;;4.07;;
31758;SDS011;36334;51.366;0.020;2022-09-03T12:50:28;5.40;;;3.53;;
31758;SDS011;36334;51.366;0.020;2022-09-03T12:53:18;6.25;;;3.42;;
31758;SDS011;36334;51.366;0.020;2022-09-03T12:56:09;4.20;;;3.50;;
31758;SDS011;36334;51.366;0.020;2022-09-03T12:58:56;4.20;;;3.10;;
31758;SDS011;36334;51.366;0.020;2022-09-03T13:01:50;10.77;;;4.30;;
31758;SDS011;36334;51.366;0.020;2022-09-03T13:04:38;6.22;;;2.90;;
31758;SDS011;36334;51.366;0.020;2022-09-03T13:07:27;4.47;;;3.25;;
31758;SDS011;36334;51.366;0.020;2022-09-03T13:10:25;4.88;;;3.33;;
31758;SDS011;36334;51.366;0.020;2022-09-03T13:13:21;4.63;;;3.60;;
31758;SDS011;36334;51.366;0.020;2022-09-03T13:25:32;5.32;;;3.35;;
31758;SDS011;36334;51.366;0.020;2022-09-03T13:32:01;7.28;;;3.53;;
31758;SDS011;36334;51.366;0.020;2022-09-03T13:34:56;4.97;;;3.22;;
31758;SDS011;36334;51.366;0.020;2022-09-03T13:37:47;5.82;;;3.60;;
31758;SDS011;36334;51.366;0.020;2022-09-03T13:40:41;3.83;;;3.30;;
31758;SDS011;36334;51.366;0.020;2022-09-03T13:43:42;5.43;;;3.40;;
31758;SDS011;36334;51.366;0.020;2022-09-03T13:46:43;5.05;;;3.60;;
31758;SDS011;36334;51.366;0.020;2022-09-03T13:56:18;5.18;;;3.75;;
31758;SDS011;36334;51.366;0.020;2022-09-03T13:59:13;7.72;;;4.03;;
31758;SDS011;36334;51.366;0.020;2022-09-03T14:20:46;8.13;;;5.35;;
31758;SDS011;36334;51.366;0.020;2022-09-03T14:26:36;6.65;;;5.78;;
31758;SDS011;36334;51.366;0.020;2022-09-03T14:29:31;7.57;;;6.10;;
31758;SDS011;36334;51.366;0.020;2022-09-03T14:39:07;7.13;;;5.70;;
31758;SDS011;36334;51.366;0.020;2022-09-03T14:51:25;5.35;;;4.22;;
31758;SDS011;36334;51.366;0.020;2022-09-03T14:54:45;5.10;;;4.35;;
31758;SDS011;36334;51.366;0.020;2022-09-03T15:12:50;6.68;;;4.57;;
31758;SDS011;36334;51.366;0.020;2022-09-03T15:18:28;4.68;;;4.28;;
31758;SDS011;36334;51.366;0.020;2022-09-03T15:34:18;8.55;;;5.57;;
31758;SDS011;36334;51.366;0.020;2022-09-03T15:37:58;6.30;;;5.43;;
31758;SDS011;36334;51.366;0.020;2022-09-03T15:43:31;6.30;;;5.53;;
31758;SDS011;36334;51.366;0.020;2022-09-03T15:46:29;6.53;;;4.70;;
31758;SDS011;36334;51.366;0.020;2022-09-03T15:49:35;5.68;;;5.05;;
31758;SDS011;36334;51.366;0.020;2022-09-03T15:53:01;8.98;;;5.00;;
31758;SDS011;36334;51.366;0.020;2022-09-03T16:02:12;8.25;;;5.88;;
31758;SDS011;36334;51.366;0.020;2022-09-03T16:14:28;8.27;;;6.97;;
31758;SDS011;36334;51.366;0.020;2022-09-03T16:17:31;7.03;;;6.30;;
31758;SDS011;36334;51.366;0.020;2022-09-03T16:20:42;6.47;;;5.47;;
31758;SDS011;36334;51.366;0.020;2022-09-03T16:26:41;9.32;;;6.13;;
31758;SDS011;36334;51.366;0.020;2022-09-03T16:29:57;7.60;;;6.45;;
31758;SDS011;36334;51.366;0.020;2022-09-03T16:39:04;8.57;;;7.68;;
31758;SDS011;36334;51.366;0.020;2022-09-03T16:51:12;10.43;;;7.72;;
31758;SDS011;36334;51.366;0.020;2022-09-03T16:57:19;11.70;;;7.75;;
31758;SDS011;36334;51.366;0.020;2022-09-03T17:00:19;10.10;;;7.25;;
31758;SDS011;36334;51.366;0.020;2022-09-03T17:03:13;9.52;;;6.97;;
31758;SDS011;36334;51.366;0.020;2022-09-03T17:24:25;9.80;;;7.50;;
31758;SDS011;36334;51.366;0.020;2022-09-03T17:30:51;9.98;;;7.35;;
31758;SDS011;36334;51.366;0.020;2022-09-03T17:37:04;9.55;;;7.43;;
31758;SDS011;36334;51.366;0.020;2022-09-03T17:39:57;10.48;;;7.97;;
31758;SDS011;36334;51.366;0.020;2022-09-03T17:43:05;10.82;;;7.90;;
31758;SDS011;36334;51.366;0.020;2022-09-03T17:46:12;9.40;;;7.50;;
31758;SDS011;36334;51.366;0.020;2022-09-03T17:49:20;9.90;;;7.35;;
31758;SDS011;36334;51.366;0.020;2022-09-03T17:55:23;9.57;;;8.55;;
31758;SDS011;36334;51.366;0.020;2022-09-03T17:58:23;10.23;;;8.37;;
31758;SDS011;36334;51.366;0.020;2022-09-03T18:01:25;10.27;;;8.38;;
31758;SDS011;36334;51.366;0.020;2022-09-03T18:04:23;11.95;;;9.57;;
31758;SDS011;36334;51.366;0.020;2022-09-03T18:07:21;12.43;;;7.75;;
31758;SDS011;36334;51.366;0.020;2022-09-03T18:15:59;12.82;;;8.95;;
31758;SDS011;36334;51.366;0.020;2022-09-03T18:19:27;12.35;;;9.30;;
31758;SDS011;36334;51.366;0.020;2022-09-03T18:22:15;18.67;;;9.85;;
31758;SDS011;36334;51.366;0.020;2022-09-03T18:25:21;15.18;;;10.10;;
31758;SDS011;36334;51.366;0.020;2022-09-03T18:28:38;12.77;;;10.32;;
31758;SDS011;36334;51.366;0.020;2022-09-03T18:31:47;11.85;;;10.27;;
31758;SDS011;36334;51.366;0.020;2022-09-03T18:34:52;13.13;;;9.85;;
31758;SDS011;36334;51.366;0.020;2022-09-03T18:37:57;11.45;;;9.77;;
31758;SDS011;36334;51.366;0.020;2022-09-03T19:01:35;11.85;;;9.75;;
31758;SDS011;36334;51.366;0.020;2022-09-03T19:08:21;11.13;;;9.95;;
31758;SDS011;36334;51.366;0.020;2022-09-03T19:11:34;12.98;;;9.98;;
31758;SDS011;36334;51.366;0.020;2022-09-03T19:15:00;11.15;;;8.80;;
31758;SDS011;36334;51.366;0.020;2022-09-03T19:21:38;11.40;;;9.70;;
31758;SDS011;36334;51.366;0.020;2022-09-03T19:24:51;13.85;;;10.30;;
31758;SDS011;36334;51.366;0.020;2022-09-03T19:31:22;19.45;;;11.10;;
31758;SDS011;36334;51.366;0.020;2022-09-03T19:38:04;12.75;;;9.95;;
31758;SDS011;36334;51.366;0.020;2022-09-03T19:41:43;14.50;;;10.65;;
31758;SDS011;36334;51.366;0.020;2022-09-03T19:45:06;15.48;;;11.63;;
31758;SDS011;36334;51.366;0.020;2022-09-03T19:48:18;17.00;;;11.80;;
31758;SDS011;36334;51.366;0.020;2022-09-03T19:52:00;15.38;;;11.55;;
31758;SDS011;36334;51.366;0.020;2022-09-03T19:55:09;15.63;;;11.95;;
31758;SDS011;36334;51.366;0.020;2022-09-03T19:58:20;14.27;;;11.85;;
31758;SDS011;36334;51.366;0.020;2022-09-03T20:01:33;18.33;;;12.00;;
31758;SDS011;36334;51.366;0.020;2022-09-03T20:04:44;15.43;;;11.13;;
31758;SDS011;36334;51.366;0.020;2022-09-03T20:08:00;18.02;;;12.65;;
31758;SDS011;36334;51.366;0.020;2022-09-03T20:11:05;17.05;;;11.07;;
31758;SDS011;36334;51.366;0.020;2022-09-03T20:13:55;13.98;;;10.10;;
31758;SDS011;36334;51.366;0.020;2022-09-03T20:20:06;12.00;;;9.77;;
31758;SDS011;36334;51.366;0.020;2022-09-03T20:23:05;12.70;;;10.18;;
31758;SDS011;36334;51.366;0.020;2022-09-03T20:35:56;17.27;;;11.02;;
31758;SDS011;36334;51.366;0.020;2022-09-03T20:39:05;14.68;;;10.90;;
31758;SDS011;36334;51.366;0.020;2022-09-03T20:42:26;13.68;;;10.45;;
31758;SDS011;36334;51.366;0.020;2022-09-03T20:45:42;15.23;;;10.10;;
31758;SDS011;36334;51.366;0.020;2022-09-03T20:51:35;12.63;;;9.63;;
31758;SDS011;36334;51.366;0.020;2022-09-03T21:00:21;14.98;;;9.65;;
31758;SDS011;36334;51.366;0.020;2022-09-03T21:03:11;12.38;;;10.00;;
31758;SDS011;36334;51.366;0.020;2022-09-03T21:06:10;13.80;;;9.40;;
31758;SDS011;36334;51.366;0.020;2022-09-03T21:09:13;13.57;;;9.63;;
31758;SDS011;36334;51.366;0.020;2022-09-03T21:24:45;16.17;;;11.48;;
31758;SDS011;36334;51.366;0.020;2022-09-03T21:27:42;12.27;;;9.85;;
31758;SDS011;36334;51.366;0.020;2022-09-03T21:30:31;14.13;;;11.68;;
31758;SDS011;36334;51.366;0.020;2022-09-03T21:33:30;15.45;;;11.13;;
31758;SDS011;36334;51.366;0.020;2022-09-03T21:36:22;14.40;;;11.18;;
31758;SDS011;36334;51.366;0.020;2022-09-03T21:39:25;15.63;;;11.00;;
31758;SDS011;36334;51.366;0.020;2022-09-03T21:42:31;14.98;;;10.40;;
31758;SDS011;36334;51.366;0.020;2022-09-03T21:45:41;12.93;;;11.52;;
31758;SDS011;36334;51.366;0.020;2022-09-03T21:54:36;13.52;;;10.38;;
31758;SDS011;36334;51.366;0.020;2022-09-03T22:03:20;12.75;;;10.25;;
31758;SDS011;36334;51.366;0.020;2022-09-03T22:06:16;14.95;;;11.65;;
31758;SDS011;36334;51.366;0.020;2022-09-03T22:12:19;17.67;;;12.48;;
31758;SDS011;36334;51.366;0.020;2022-09-03T22:15:17;15.15;;;11.88;;
31758;SDS011;36334;51.366;0.020;2022-09-03T22:18:06;18.35;;;13.82;;
31758;SDS011;36334;51.366;0.020;2022-09-03T22:21:17;15.35;;;11.65;;
31758;SDS011;36334;51.366;0.020;2022-09-03T22:24:17;16.65;;;12.70;;
31758;SDS011;36334;51.366;0.020;2022-09-03T22:27:12;13.80;;;12.30;;
31758;SDS011;36334;51.366;0.020;2022-09-03T22:30:14;19.05;;;12.40;;
31758;SDS011;36334;51.366;0.020;2022-09-03T22:36:12;15.15;;;12.27;;
31758;SDS011;36334;51.366;0.020;2022-09-03T22:39:23;16.27;;;11.60;;
31758;SDS011;36334;51.366;0.020;2022-09-03T22:42:27;17.52;;;13.45;;
31758;SDS011;36334;51.366;0.020;2022-09-03T22:51:01;18.88;;;12.55;;
31758;SDS011;36334;51.366;0.020;2022-09-03T22:54:05;17.48;;;12.63;;
31758;SDS011;36334;51.366;0.020;2022-09-03T22:57:12;15.90;;;12.32;;
31758;SDS011;36334;51.366;0.020;2022-09-03T23:00:03;21.85;;;14.55;;
31758;SDS011;36334;51.366;0.020;2022-09-03T23:03:00;18.92;;;13.27;;
31758;SDS011;36334;51.366;0.020;2022-09-03T23:06:02;19.40;;;14.10;;
31758;SDS011;36334;51.366;0.020;2022-09-03T23:09:05;19.70;;;14.00;;
31758;SDS011;36334;51.366;0.020;2022-09-03T23:11:55;18.80;;;13.43;;
31758;SDS011;36334;51.366;0.020;2022-09-03T23:14:46;18.05;;;14.02;;
31758;SDS011;36334;51.366;0.020;2022-09-03T23:17:42;16.05;;;13.07;;
31758;SDS011;36334;51.366;0.020;2022-09-03T23:20:32;20.48;;;13.88;;
31758;SDS011;36334;51.366;0.020;2022-09-03T23:23:27;16.23;;;13.68;;
31758;SDS011;36334;51.366;0.020;2022-09-03T23:26:50;21.23;;;14.03;;
31758;SDS011;36334;51.366;0.020;2022-09-03T23:29:34;21.35;;;13.35;;
31758;SDS011;36334;51.366;0.020;2022-09-03T23:32:42;17.80;;;13.93;;
31758;SDS011;36334;51.366;0.020;2022-09-03T23:35:29;18.25;;;13.60;;
31758;SDS011;36334;51.366;0.020;2022-09-03T23:38:26;16.92;;;12.85;;
31758;SDS011;36334;51.366;0.020;2022-09-03T23:41:29;17.90;;;13.07;;
31758;SDS011;36334;51.366;0.020;2022-09-03T23:44:33;19.35;;;12.95;;
31758;SDS011;36334;51.366;0.020;2022-09-03T23:51:01;17.05;;;13.35;;
